sensor_id;sensor_type;location;lat;lon;timestamp;P1;durP1;ratioP1;P2;durP2;ratioP2
49458;SDS011;35354;51.296;16.924;2022-11-23T00:01:32;119.78;;;69.05;;
49458;SDS011;35354;51.296;16.924;2022-11-23T00:04:09;120.53;;;67.90;;
49458;SDS011;35354;51.296;16.924;2022-11-23T00:06:37;108.63;;;61.65;;
49458;SDS011;35354;51.296;16.924;2022-11-23T00:09:03;104.72;;;61.92;;
49458;SDS011;35354;51.296;16.924;2022-11-23T00:11:29;98.95;;;58.60;;
49458;SDS011;35354;51.296;16.924;2022-11-23T00:13:55;105.75;;;63.25;;
49458;SDS011;35354;51.296;16.924;2022-11-23T00:16:22;101.22;;;62.45;;
49458;SDS011;35354;51.296;16.924;2022-11-23T00:18:51;106.40;;;60.30;;
49458;SDS011;35354;51.296;16.924;2022-11-23T00:21:27;102.95;;;59.50;;
49458;SDS011;35354;51.296;16.924;2022-11-23T00:23:54;101.88;;;59.58;;
49458;SDS011;35354;51.296;16.924;2022-11-23T00:26:19;102.53;;;59.15;;
49458;SDS011;35354;51.296;16.924;2022-11-23T00:28:45;102.38;;;62.35;;
49458;SDS011;35354;51.296;16.924;2022-11-23T00:31:12;96.80;;;61.63;;
49458;SDS011;35354;51.296;16.924;2022-11-23T00:33:39;95.47;;;60.42;;
49458;SDS011;35354;51.296;16.924;2022-11-23T00:36:06;90.97;;;58.40;;
49458;SDS011;35354;51.296;16.924;2022-11-23T00:38:35;93.63;;;58.08;;
49458;SDS011;35354;51.296;16.924;2022-11-23T00:41:05;91.05;;;57.63;;
49458;SDS011;35354;51.296;16.924;2022-11-23T00:43:33;83.30;;;52.83;;
49458;SDS011;35354;51.296;16.924;2022-11-23T00:46:06;95.13;;;56.72;;
49458;SDS011;35354;51.296;16.924;2022-11-23T00:48:31;90.63;;;54.08;;
49458;SDS011;35354;51.296;16.924;2022-11-23T00:50:58;91.25;;;52.63;;
49458;SDS011;35354;51.296;16.924;2022-11-23T00:53:25;92.68;;;55.05;;
49458;SDS011;35354;51.296;16.924;2022-11-23T00:55:51;91.32;;;55.65;;
49458;SDS011;35354;51.296;16.924;2022-11-23T00:58:17;89.55;;;53.80;;
49458;SDS011;35354;51.296;16.924;2022-11-23T01:00:42;82.20;;;51.70;;
49458;SDS011;35354;51.296;16.924;2022-11-23T01:03:08;86.03;;;52.72;;
49458;SDS011;35354;51.296;16.924;2022-11-23T01:05:37;85.35;;;50.58;;
49458;SDS011;35354;51.296;16.924;2022-11-23T01:08:03;77.60;;;48.88;;
49458;SDS011;35354;51.296;16.924;2022-11-23T01:10:29;80.20;;;50.38;;
49458;SDS011;35354;51.296;16.924;2022-11-23T01:12:55;79.60;;;51.67;;
49458;SDS011;35354;51.296;16.924;2022-11-23T01:15:20;78.07;;;51.00;;
49458;SDS011;35354;51.296;16.924;2022-11-23T01:17:46;80.63;;;50.40;;
49458;SDS011;35354;51.296;16.924;2022-11-23T01:20:11;82.57;;;51.80;;
49458;SDS011;35354;51.296;16.924;2022-11-23T01:22:36;84.60;;;52.25;;
49458;SDS011;35354;51.296;16.924;2022-11-23T01:25:02;80.93;;;52.30;;
49458;SDS011;35354;51.296;16.924;2022-11-23T01:27:27;84.15;;;53.65;;
49458;SDS011;35354;51.296;16.924;2022-11-23T01:29:52;83.85;;;53.30;;
49458;SDS011;35354;51.296;16.924;2022-11-23T01:32:18;86.72;;;54.53;;
49458;SDS011;35354;51.296;16.924;2022-11-23T01:34:43;82.35;;;51.67;;
49458;SDS011;35354;51.296;16.924;2022-11-23T01:37:08;86.30;;;52.17;;
49458;SDS011;35354;51.296;16.924;2022-11-23T01:39:34;77.18;;;50.92;;
49458;SDS011;35354;51.296;16.924;2022-11-23T01:41:59;83.15;;;50.38;;
49458;SDS011;35354;51.296;16.924;2022-11-23T01:44:32;82.55;;;50.95;;
49458;SDS011;35354;51.296;16.924;2022-11-23T01:47:00;92.75;;;58.33;;
49458;SDS011;35354;51.296;16.924;2022-11-23T01:49:29;126.10;;;74.72;;
49458;SDS011;35354;51.296;16.924;2022-11-23T01:52:01;97.03;;;60.17;;
49458;SDS011;35354;51.296;16.924;2022-11-23T01:54:31;101.00;;;64.55;;
49458;SDS011;35354;51.296;16.924;2022-11-23T01:57:02;124.13;;;74.50;;
49458;SDS011;35354;51.296;16.924;2022-11-23T02:01:57;94.22;;;58.65;;
49458;SDS011;35354;51.296;16.924;2022-11-23T02:04:24;82.93;;;52.42;;
49458;SDS011;35354;51.296;16.924;2022-11-23T02:06:53;86.70;;;53.78;;
49458;SDS011;35354;51.296;16.924;2022-11-23T02:09:20;88.80;;;56.45;;
49458;SDS011;35354;51.296;16.924;2022-11-23T02:11:46;83.68;;;52.75;;
49458;SDS011;35354;51.296;16.924;2022-11-23T02:14:12;90.43;;;57.72;;
49458;SDS011;35354;51.296;16.924;2022-11-23T02:16:38;87.40;;;53.72;;
49458;SDS011;35354;51.296;16.924;2022-11-23T02:19:04;82.07;;;52.67;;
49458;SDS011;35354;51.296;16.924;2022-11-23T02:21:36;85.38;;;50.17;;
49458;SDS011;35354;51.296;16.924;2022-11-23T02:26:38;86.00;;;53.28;;
49458;SDS011;35354;51.296;16.924;2022-11-23T02:29:06;86.35;;;52.25;;
49458;SDS011;35354;51.296;16.924;2022-11-23T02:31:35;75.65;;;50.13;;
49458;SDS011;35354;51.296;16.924;2022-11-23T02:34:01;76.75;;;48.65;;
49458;SDS011;35354;51.296;16.924;2022-11-23T02:38:54;74.60;;;47.40;;
49458;SDS011;35354;51.296;16.924;2022-11-23T02:41:23;72.68;;;46.30;;
49458;SDS011;35354;51.296;16.924;2022-11-23T02:43:49;77.35;;;48.38;;
49458;SDS011;35354;51.296;16.924;2022-11-23T02:46:19;80.53;;;49.60;;
49458;SDS011;35354;51.296;16.924;2022-11-23T02:48:44;85.65;;;52.83;;
49458;SDS011;35354;51.296;16.924;2022-11-23T02:51:09;81.63;;;50.95;;
49458;SDS011;35354;51.296;16.924;2022-11-23T02:53:35;86.25;;;51.33;;
49458;SDS011;35354;51.296;16.924;2022-11-23T02:56:00;81.03;;;53.20;;
49458;SDS011;35354;51.296;16.924;2022-11-23T02:58:26;82.07;;;52.42;;
49458;SDS011;35354;51.296;16.924;2022-11-23T03:00:51;77.78;;;52.17;;
49458;SDS011;35354;51.296;16.924;2022-11-23T03:03:16;83.18;;;55.03;;
49458;SDS011;35354;51.296;16.924;2022-11-23T03:05:42;80.85;;;54.72;;
49458;SDS011;35354;51.296;16.924;2022-11-23T03:08:07;73.35;;;48.40;;
49458;SDS011;35354;51.296;16.924;2022-11-23T03:10:32;69.00;;;46.47;;
49458;SDS011;35354;51.296;16.924;2022-11-23T03:12:58;77.22;;;48.80;;
49458;SDS011;35354;51.296;16.924;2022-11-23T03:15:23;86.03;;;53.67;;
49458;SDS011;35354;51.296;16.924;2022-11-23T03:17:49;83.07;;;50.53;;
49458;SDS011;35354;51.296;16.924;2022-11-23T03:20:14;82.82;;;51.63;;
49458;SDS011;35354;51.296;16.924;2022-11-23T03:22:40;82.10;;;49.85;;
49458;SDS011;35354;51.296;16.924;2022-11-23T03:25:05;71.80;;;46.00;;
49458;SDS011;35354;51.296;16.924;2022-11-23T03:27:31;81.88;;;53.58;;
49458;SDS011;35354;51.296;16.924;2022-11-23T03:29:57;78.03;;;50.53;;
49458;SDS011;35354;51.296;16.924;2022-11-23T03:32:23;78.63;;;51.38;;
49458;SDS011;35354;51.296;16.924;2022-11-23T03:34:49;84.05;;;55.38;;
49458;SDS011;35354;51.296;16.924;2022-11-23T03:37:14;88.00;;;56.15;;
49458;SDS011;35354;51.296;16.924;2022-11-23T03:39:39;88.72;;;56.20;;
49458;SDS011;35354;51.296;16.924;2022-11-23T03:42:05;79.90;;;52.75;;
49458;SDS011;35354;51.296;16.924;2022-11-23T03:44:30;84.03;;;53.63;;
49458;SDS011;35354;51.296;16.924;2022-11-23T03:46:56;82.78;;;52.75;;
49458;SDS011;35354;51.296;16.924;2022-11-23T03:49:21;81.72;;;54.38;;
49458;SDS011;35354;51.296;16.924;2022-11-23T03:51:46;87.63;;;57.53;;
49458;SDS011;35354;51.296;16.924;2022-11-23T03:54:12;83.47;;;52.47;;
49458;SDS011;35354;51.296;16.924;2022-11-23T03:56:37;78.50;;;52.55;;
49458;SDS011;35354;51.296;16.924;2022-11-23T03:59:02;77.80;;;51.80;;
49458;SDS011;35354;51.296;16.924;2022-11-23T04:01:28;84.10;;;53.42;;
49458;SDS011;35354;51.296;16.924;2022-11-23T04:03:53;87.10;;;53.13;;
49458;SDS011;35354;51.296;16.924;2022-11-23T04:06:19;76.05;;;50.22;;
49458;SDS011;35354;51.296;16.924;2022-11-23T04:08:44;75.07;;;50.90;;
49458;SDS011;35354;51.296;16.924;2022-11-23T04:11:09;79.25;;;49.35;;
49458;SDS011;35354;51.296;16.924;2022-11-23T04:13:35;77.13;;;49.13;;
49458;SDS011;35354;51.296;16.924;2022-11-23T04:16:00;77.32;;;49.95;;
49458;SDS011;35354;51.296;16.924;2022-11-23T04:18:26;80.85;;;50.08;;
49458;SDS011;35354;51.296;16.924;2022-11-23T04:20:51;76.82;;;50.08;;
49458;SDS011;35354;51.296;16.924;2022-11-23T04:23:16;91.55;;;58.70;;
49458;SDS011;35354;51.296;16.924;2022-11-23T04:25:42;80.57;;;52.25;;
49458;SDS011;35354;51.296;16.924;2022-11-23T04:28:07;86.82;;;51.75;;
49458;SDS011;35354;51.296;16.924;2022-11-23T04:30:33;79.00;;;49.40;;
49458;SDS011;35354;51.296;16.924;2022-11-23T04:32:58;80.85;;;51.17;;
49458;SDS011;35354;51.296;16.924;2022-11-23T04:35:23;85.15;;;53.92;;
49458;SDS011;35354;51.296;16.924;2022-11-23T04:37:48;85.55;;;52.13;;
49458;SDS011;35354;51.296;16.924;2022-11-23T04:40:14;76.32;;;50.75;;
49458;SDS011;35354;51.296;16.924;2022-11-23T04:42:39;80.68;;;51.70;;
49458;SDS011;35354;51.296;16.924;2022-11-23T04:45:05;80.80;;;51.17;;
49458;SDS011;35354;51.296;16.924;2022-11-23T04:47:31;87.28;;;56.47;;
49458;SDS011;35354;51.296;16.924;2022-11-23T04:49:57;90.90;;;55.08;;
49458;SDS011;35354;51.296;16.924;2022-11-23T04:52:22;80.25;;;51.60;;
49458;SDS011;35354;51.296;16.924;2022-11-23T04:54:48;81.00;;;49.88;;
49458;SDS011;35354;51.296;16.924;2022-11-23T04:57:13;81.00;;;51.70;;
49458;SDS011;35354;51.296;16.924;2022-11-23T04:59:39;83.35;;;50.08;;
49458;SDS011;35354;51.296;16.924;2022-11-23T05:02:04;82.70;;;51.38;;
49458;SDS011;35354;51.296;16.924;2022-11-23T05:04:29;85.13;;;51.95;;
49458;SDS011;35354;51.296;16.924;2022-11-23T05:06:55;82.75;;;55.88;;
49458;SDS011;35354;51.296;16.924;2022-11-23T05:09:20;93.85;;;57.65;;
49458;SDS011;35354;51.296;16.924;2022-11-23T05:11:45;85.20;;;56.40;;
49458;SDS011;35354;51.296;16.924;2022-11-23T05:14:11;82.60;;;53.80;;
49458;SDS011;35354;51.296;16.924;2022-11-23T05:16:36;79.45;;;50.25;;
49458;SDS011;35354;51.296;16.924;2022-11-23T05:19:02;84.22;;;51.47;;
49458;SDS011;35354;51.296;16.924;2022-11-23T05:21:27;85.30;;;54.03;;
49458;SDS011;35354;51.296;16.924;2022-11-23T05:23:52;80.15;;;51.67;;
49458;SDS011;35354;51.296;16.924;2022-11-23T05:26:18;80.22;;;51.00;;
49458;SDS011;35354;51.296;16.924;2022-11-23T05:28:43;77.53;;;50.70;;
49458;SDS011;35354;51.296;16.924;2022-11-23T05:31:09;83.13;;;53.55;;
49458;SDS011;35354;51.296;16.924;2022-11-23T05:33:34;83.38;;;52.67;;
49458;SDS011;35354;51.296;16.924;2022-11-23T05:36:01;86.05;;;52.75;;
49458;SDS011;35354;51.296;16.924;2022-11-23T05:38:27;78.60;;;51.20;;
49458;SDS011;35354;51.296;16.924;2022-11-23T05:40:52;82.63;;;52.88;;
49458;SDS011;35354;51.296;16.924;2022-11-23T05:43:18;84.75;;;52.95;;
49458;SDS011;35354;51.296;16.924;2022-11-23T05:45:43;82.15;;;54.25;;
49458;SDS011;35354;51.296;16.924;2022-11-23T05:48:09;103.40;;;65.75;;
49458;SDS011;35354;51.296;16.924;2022-11-23T05:50:34;105.13;;;67.28;;
49458;SDS011;35354;51.296;16.924;2022-11-23T05:53:00;110.68;;;66.65;;
49458;SDS011;35354;51.296;16.924;2022-11-23T05:55:25;130.75;;;75.72;;
49458;SDS011;35354;51.296;16.924;2022-11-23T05:57:51;112.22;;;66.53;;
49458;SDS011;35354;51.296;16.924;2022-11-23T06:00:17;99.70;;;61.00;;
49458;SDS011;35354;51.296;16.924;2022-11-23T06:02:42;95.07;;;59.40;;
49458;SDS011;35354;51.296;16.924;2022-11-23T06:05:08;95.18;;;59.92;;
49458;SDS011;35354;51.296;16.924;2022-11-23T06:07:34;101.70;;;63.15;;
49458;SDS011;35354;51.296;16.924;2022-11-23T06:10:00;106.63;;;65.35;;
49458;SDS011;35354;51.296;16.924;2022-11-23T06:12:26;95.60;;;59.65;;
49458;SDS011;35354;51.296;16.924;2022-11-23T06:14:52;102.05;;;62.47;;
49458;SDS011;35354;51.296;16.924;2022-11-23T06:17:18;101.05;;;62.50;;
49458;SDS011;35354;51.296;16.924;2022-11-23T06:19:43;98.60;;;62.10;;
49458;SDS011;35354;51.296;16.924;2022-11-23T06:22:08;94.40;;;63.95;;
49458;SDS011;35354;51.296;16.924;2022-11-23T06:24:34;106.00;;;65.10;;
49458;SDS011;35354;51.296;16.924;2022-11-23T06:26:59;96.03;;;62.80;;
49458;SDS011;35354;51.296;16.924;2022-11-23T06:29:24;95.80;;;61.72;;
49458;SDS011;35354;51.296;16.924;2022-11-23T06:31:50;91.68;;;60.83;;
49458;SDS011;35354;51.296;16.924;2022-11-23T06:34:15;133.23;;;75.60;;
49458;SDS011;35354;51.296;16.924;2022-11-23T06:36:40;107.00;;;65.35;;
49458;SDS011;35354;51.296;16.924;2022-11-23T06:39:07;98.32;;;59.42;;
49458;SDS011;35354;51.296;16.924;2022-11-23T06:41:33;163.68;;;85.25;;
49458;SDS011;35354;51.296;16.924;2022-11-23T06:43:58;239.68;;;120.40;;
49458;SDS011;35354;51.296;16.924;2022-11-23T06:46:23;149.70;;;81.45;;
49458;SDS011;35354;51.296;16.924;2022-11-23T06:48:49;125.30;;;72.30;;
49458;SDS011;35354;51.296;16.924;2022-11-23T06:51:14;117.70;;;69.72;;
49458;SDS011;35354;51.296;16.924;2022-11-23T06:53:40;112.28;;;71.03;;
49458;SDS011;35354;51.296;16.924;2022-11-23T06:56:06;96.90;;;60.90;;
49458;SDS011;35354;51.296;16.924;2022-11-23T06:58:32;87.55;;;55.90;;
49458;SDS011;35354;51.296;16.924;2022-11-23T07:01:02;88.47;;;56.83;;
49458;SDS011;35354;51.296;16.924;2022-11-23T07:03:29;93.05;;;59.45;;
49458;SDS011;35354;51.296;16.924;2022-11-23T07:05:54;93.68;;;58.40;;
49458;SDS011;35354;51.296;16.924;2022-11-23T07:08:20;82.95;;;54.00;;
49458;SDS011;35354;51.296;16.924;2022-11-23T07:10:46;95.70;;;60.15;;
49458;SDS011;35354;51.296;16.924;2022-11-23T07:13:12;83.10;;;53.08;;
49458;SDS011;35354;51.296;16.924;2022-11-23T07:15:38;97.38;;;57.35;;
49458;SDS011;35354;51.296;16.924;2022-11-23T07:18:04;107.60;;;67.25;;
49458;SDS011;35354;51.296;16.924;2022-11-23T07:20:31;124.20;;;73.65;;
49458;SDS011;35354;51.296;16.924;2022-11-23T07:23:07;93.65;;;59.03;;
49458;SDS011;35354;51.296;16.924;2022-11-23T07:25:35;91.72;;;58.35;;
49458;SDS011;35354;51.296;16.924;2022-11-23T07:28:02;91.15;;;55.30;;
49458;SDS011;35354;51.296;16.924;2022-11-23T07:30:29;90.85;;;57.15;;
49458;SDS011;35354;51.296;16.924;2022-11-23T07:32:59;87.82;;;55.78;;
49458;SDS011;35354;51.296;16.924;2022-11-23T07:35:25;89.72;;;54.95;;
49458;SDS011;35354;51.296;16.924;2022-11-23T07:37:51;87.32;;;55.95;;
49458;SDS011;35354;51.296;16.924;2022-11-23T07:40:17;87.88;;;52.35;;
49458;SDS011;35354;51.296;16.924;2022-11-23T07:42:42;101.88;;;58.28;;
49458;SDS011;35354;51.296;16.924;2022-11-23T07:45:08;84.78;;;53.22;;
49458;SDS011;35354;51.296;16.924;2022-11-23T07:47:34;98.40;;;64.20;;
49458;SDS011;35354;51.296;16.924;2022-11-23T07:50:00;110.90;;;69.22;;
49458;SDS011;35354;51.296;16.924;2022-11-23T07:52:25;95.25;;;60.15;;
49458;SDS011;35354;51.296;16.924;2022-11-23T07:54:50;104.28;;;68.30;;
49458;SDS011;35354;51.296;16.924;2022-11-23T07:57:15;95.45;;;59.58;;
49458;SDS011;35354;51.296;16.924;2022-11-23T07:59:41;90.05;;;59.70;;
49458;SDS011;35354;51.296;16.924;2022-11-23T08:02:08;94.10;;;62.53;;
49458;SDS011;35354;51.296;16.924;2022-11-23T08:04:34;91.13;;;58.45;;
49458;SDS011;35354;51.296;16.924;2022-11-23T08:06:59;86.15;;;54.42;;
49458;SDS011;35354;51.296;16.924;2022-11-23T08:09:26;93.43;;;58.95;;
49458;SDS011;35354;51.296;16.924;2022-11-23T08:11:51;94.35;;;59.28;;
49458;SDS011;35354;51.296;16.924;2022-11-23T08:14:17;96.68;;;59.17;;
49458;SDS011;35354;51.296;16.924;2022-11-23T08:16:42;96.35;;;58.85;;
49458;SDS011;35354;51.296;16.924;2022-11-23T08:19:07;87.75;;;55.45;;
49458;SDS011;35354;51.296;16.924;2022-11-23T08:21:33;85.88;;;53.47;;
49458;SDS011;35354;51.296;16.924;2022-11-23T08:23:58;92.57;;;56.53;;
49458;SDS011;35354;51.296;16.924;2022-11-23T08:26:23;90.15;;;57.80;;
49458;SDS011;35354;51.296;16.924;2022-11-23T08:28:49;88.40;;;54.97;;
49458;SDS011;35354;51.296;16.924;2022-11-23T08:31:14;90.10;;;54.90;;
49458;SDS011;35354;51.296;16.924;2022-11-23T08:33:40;85.78;;;54.45;;
49458;SDS011;35354;51.296;16.924;2022-11-23T08:36:05;87.60;;;54.22;;
49458;SDS011;35354;51.296;16.924;2022-11-23T08:38:33;98.63;;;56.00;;
49458;SDS011;35354;51.296;16.924;2022-11-23T08:41:02;88.80;;;54.25;;
49458;SDS011;35354;51.296;16.924;2022-11-23T08:43:29;85.40;;;53.70;;
49458;SDS011;35354;51.296;16.924;2022-11-23T08:45:55;90.93;;;58.67;;
49458;SDS011;35354;51.296;16.924;2022-11-23T08:48:21;91.97;;;58.58;;
49458;SDS011;35354;51.296;16.924;2022-11-23T08:50:47;94.93;;;58.55;;
49458;SDS011;35354;51.296;16.924;2022-11-23T08:53:13;96.07;;;57.20;;
49458;SDS011;35354;51.296;16.924;2022-11-23T08:55:38;88.63;;;53.47;;
49458;SDS011;35354;51.296;16.924;2022-11-23T08:58:03;85.85;;;56.90;;
49458;SDS011;35354;51.296;16.924;2022-11-23T09:00:29;88.95;;;55.92;;
49458;SDS011;35354;51.296;16.924;2022-11-23T09:02:54;100.30;;;59.10;;
49458;SDS011;35354;51.296;16.924;2022-11-23T09:05:23;91.18;;;56.78;;
49458;SDS011;35354;51.296;16.924;2022-11-23T09:07:49;84.57;;;55.15;;
49458;SDS011;35354;51.296;16.924;2022-11-23T09:10:15;94.90;;;58.67;;
49458;SDS011;35354;51.296;16.924;2022-11-23T09:12:40;90.40;;;54.85;;
49458;SDS011;35354;51.296;16.924;2022-11-23T09:15:06;86.28;;;53.80;;
49458;SDS011;35354;51.296;16.924;2022-11-23T09:17:32;81.20;;;52.13;;
49458;SDS011;35354;51.296;16.924;2022-11-23T09:19:57;86.28;;;52.80;;
49458;SDS011;35354;51.296;16.924;2022-11-23T09:22:23;89.63;;;55.38;;
49458;SDS011;35354;51.296;16.924;2022-11-23T09:24:48;87.57;;;54.15;;
49458;SDS011;35354;51.296;16.924;2022-11-23T09:27:13;92.65;;;54.00;;
49458;SDS011;35354;51.296;16.924;2022-11-23T09:29:39;89.35;;;55.15;;
49458;SDS011;35354;51.296;16.924;2022-11-23T09:32:04;93.85;;;57.25;;
49458;SDS011;35354;51.296;16.924;2022-11-23T09:34:30;121.95;;;74.45;;
49458;SDS011;35354;51.296;16.924;2022-11-23T09:36:55;103.55;;;63.47;;
49458;SDS011;35354;51.296;16.924;2022-11-23T09:39:21;89.80;;;55.25;;
49458;SDS011;35354;51.296;16.924;2022-11-23T09:50:45;121.07;;;67.50;;
49458;SDS011;35354;51.296;16.924;2022-11-23T09:53:23;122.22;;;68.63;;
49458;SDS011;35354;51.296;16.924;2022-11-23T09:55:54;276.38;;;117.57;;
49458;SDS011;35354;51.296;16.924;2022-11-23T09:58:21;341.73;;;131.95;;
49458;SDS011;35354;51.296;16.924;2022-11-23T10:01:00;95.88;;;54.70;;
49458;SDS011;35354;51.296;16.924;2022-11-23T10:03:31;109.18;;;59.35;;
49458;SDS011;35354;51.296;16.924;2022-11-23T10:06:11;115.47;;;62.58;;
49458;SDS011;35354;51.296;16.924;2022-11-23T10:14:19;107.60;;;60.58;;
49458;SDS011;35354;51.296;16.924;2022-11-23T10:17:08;186.23;;;90.55;;
49458;SDS011;35354;51.296;16.924;2022-11-23T10:25:04;121.43;;;69.45;;
49458;SDS011;35354;51.296;16.924;2022-11-23T10:27:45;108.78;;;63.63;;
49458;SDS011;35354;51.296;16.924;2022-11-23T10:30:13;127.72;;;71.82;;
49458;SDS011;35354;51.296;16.924;2022-11-23T10:35:19;143.95;;;82.15;;
49458;SDS011;35354;51.296;16.924;2022-11-23T10:37:52;386.13;;;208.38;;
49458;SDS011;35354;51.296;16.924;2022-11-23T10:40:29;182.80;;;100.20;;
49458;SDS011;35354;51.296;16.924;2022-11-23T10:42:57;111.82;;;68.47;;
49458;SDS011;35354;51.296;16.924;2022-11-23T10:45:26;161.37;;;107.43;;
49458;SDS011;35354;51.296;16.924;2022-11-23T10:47:56;114.43;;;76.00;;
49458;SDS011;35354;51.296;16.924;2022-11-23T10:50:33;112.85;;;68.65;;
49458;SDS011;35354;51.296;16.924;2022-11-23T10:55:50;137.40;;;79.82;;
49458;SDS011;35354;51.296;16.924;2022-11-23T11:01:01;110.63;;;65.95;;
49458;SDS011;35354;51.296;16.924;2022-11-23T11:05:57;119.43;;;70.30;;
49458;SDS011;35354;51.296;16.924;2022-11-23T11:08:28;124.88;;;72.20;;
49458;SDS011;35354;51.296;16.924;2022-11-23T11:11:10;177.45;;;88.40;;
49458;SDS011;35354;51.296;16.924;2022-11-23T11:13:47;131.50;;;72.13;;
49458;SDS011;35354;51.296;16.924;2022-11-23T11:16:17;130.45;;;69.50;;
49458;SDS011;35354;51.296;16.924;2022-11-23T11:18:50;136.02;;;73.25;;
49458;SDS011;35354;51.296;16.924;2022-11-23T11:21:20;126.47;;;72.68;;
49458;SDS011;35354;51.296;16.924;2022-11-23T11:23:52;110.18;;;68.20;;
49458;SDS011;35354;51.296;16.924;2022-11-23T11:26:23;115.30;;;66.57;;
49458;SDS011;35354;51.296;16.924;2022-11-23T11:31:35;111.03;;;72.85;;
49458;SDS011;35354;51.296;16.924;2022-11-23T11:34:25;103.03;;;60.33;;
49458;SDS011;35354;51.296;16.924;2022-11-23T11:37:13;119.80;;;69.07;;
49458;SDS011;35354;51.296;16.924;2022-11-23T11:39:57;137.73;;;77.82;;
49458;SDS011;35354;51.296;16.924;2022-11-23T11:42:32;118.05;;;72.80;;
49458;SDS011;35354;51.296;16.924;2022-11-23T11:45:02;110.60;;;66.63;;
49458;SDS011;35354;51.296;16.924;2022-11-23T11:47:40;105.40;;;64.35;;
49458;SDS011;35354;51.296;16.924;2022-11-23T11:50:20;98.97;;;62.67;;
49458;SDS011;35354;51.296;16.924;2022-11-23T11:52:49;102.70;;;61.90;;
49458;SDS011;35354;51.296;16.924;2022-11-23T11:58:12;101.45;;;57.97;;
49458;SDS011;35354;51.296;16.924;2022-11-23T12:00:41;116.82;;;71.38;;
49458;SDS011;35354;51.296;16.924;2022-11-23T12:05:55;123.28;;;63.92;;
49458;SDS011;35354;51.296;16.924;2022-11-23T12:08:30;121.97;;;63.90;;
49458;SDS011;35354;51.296;16.924;2022-11-23T12:11:02;111.93;;;63.17;;
49458;SDS011;35354;51.296;16.924;2022-11-23T12:13:31;99.60;;;56.13;;
49458;SDS011;35354;51.296;16.924;2022-11-23T12:21:30;87.78;;;52.78;;
49458;SDS011;35354;51.296;16.924;2022-11-23T12:24:09;89.25;;;54.55;;
49458;SDS011;35354;51.296;16.924;2022-11-23T12:26:52;84.13;;;53.20;;
49458;SDS011;35354;51.296;16.924;2022-11-23T12:37:45;94.30;;;56.67;;
49458;SDS011;35354;51.296;16.924;2022-11-23T12:42:55;92.18;;;52.33;;
49458;SDS011;35354;51.296;16.924;2022-11-23T12:50:49;86.30;;;51.40;;
49458;SDS011;35354;51.296;16.924;2022-11-23T12:58:45;83.03;;;52.53;;
49458;SDS011;35354;51.296;16.924;2022-11-23T13:09:38;99.97;;;59.60;;
49458;SDS011;35354;51.296;16.924;2022-11-23T13:15:23;97.32;;;62.22;;
49458;SDS011;35354;51.296;16.924;2022-11-23T13:20:48;88.28;;;54.63;;
49458;SDS011;35354;51.296;16.924;2022-11-23T13:23:36;94.47;;;58.95;;
49458;SDS011;35354;51.296;16.924;2022-11-23T13:28:47;88.00;;;53.30;;
49458;SDS011;35354;51.296;16.924;2022-11-23T13:33:40;99.65;;;60.75;;
49458;SDS011;35354;51.296;16.924;2022-11-23T13:36:11;98.18;;;63.17;;
49458;SDS011;35354;51.296;16.924;2022-11-23T13:38:58;89.30;;;52.97;;
49458;SDS011;35354;51.296;16.924;2022-11-23T13:44:11;114.03;;;71.72;;
49458;SDS011;35354;51.296;16.924;2022-11-23T13:46:43;144.43;;;80.72;;
49458;SDS011;35354;51.296;16.924;2022-11-23T13:49:29;159.60;;;90.90;;
49458;SDS011;35354;51.296;16.924;2022-11-23T13:57:33;156.00;;;83.75;;
49458;SDS011;35354;51.296;16.924;2022-11-23T14:06:08;103.22;;;60.60;;
49458;SDS011;35354;51.296;16.924;2022-11-23T14:08:37;132.50;;;72.72;;
49458;SDS011;35354;51.296;16.924;2022-11-23T14:11:15;135.50;;;76.25;;
49458;SDS011;35354;51.296;16.924;2022-11-23T14:13:49;109.20;;;62.40;;
49458;SDS011;35354;51.296;16.924;2022-11-23T14:16:20;95.13;;;58.00;;
49458;SDS011;35354;51.296;16.924;2022-11-23T14:22:25;84.30;;;51.53;;
49458;SDS011;35354;51.296;16.924;2022-11-23T14:27:44;91.10;;;55.17;;
49458;SDS011;35354;51.296;16.924;2022-11-23T14:36:05;106.68;;;60.22;;
49458;SDS011;35354;51.296;16.924;2022-11-23T14:41:40;103.30;;;63.30;;
49458;SDS011;35354;51.296;16.924;2022-11-23T14:44:10;109.13;;;63.58;;
49458;SDS011;35354;51.296;16.924;2022-11-23T14:46:57;108.93;;;61.15;;
49458;SDS011;35354;51.296;16.924;2022-11-23T14:49:30;104.57;;;59.92;;
49458;SDS011;35354;51.296;16.924;2022-11-23T14:51:56;103.50;;;61.13;;
49458;SDS011;35354;51.296;16.924;2022-11-23T14:54:22;109.47;;;64.18;;
49458;SDS011;35354;51.296;16.924;2022-11-23T14:56:49;111.28;;;65.82;;
49458;SDS011;35354;51.296;16.924;2022-11-23T14:59:21;116.13;;;70.43;;
49458;SDS011;35354;51.296;16.924;2022-11-23T15:01:54;119.63;;;73.03;;
49458;SDS011;35354;51.296;16.924;2022-11-23T15:04:26;146.33;;;88.97;;
49458;SDS011;35354;51.296;16.924;2022-11-23T15:07:16;144.95;;;84.25;;
49458;SDS011;35354;51.296;16.924;2022-11-23T15:09:49;144.65;;;87.88;;
49458;SDS011;35354;51.296;16.924;2022-11-23T15:14:44;393.63;;;236.43;;
49458;SDS011;35354;51.296;16.924;2022-11-23T15:17:13;143.45;;;90.93;;
49458;SDS011;35354;51.296;16.924;2022-11-23T15:19:39;136.15;;;74.93;;
49458;SDS011;35354;51.296;16.924;2022-11-23T15:22:13;156.55;;;88.50;;
49458;SDS011;35354;51.296;16.924;2022-11-23T15:24:41;128.45;;;73.53;;
49458;SDS011;35354;51.296;16.924;2022-11-23T15:27:08;180.40;;;97.28;;
49458;SDS011;35354;51.296;16.924;2022-11-23T15:29:48;165.18;;;89.05;;
49458;SDS011;35354;51.296;16.924;2022-11-23T15:32:19;156.43;;;85.13;;
49458;SDS011;35354;51.296;16.924;2022-11-23T15:34:47;164.85;;;100.53;;
49458;SDS011;35354;51.296;16.924;2022-11-23T15:37:13;182.88;;;99.75;;
49458;SDS011;35354;51.296;16.924;2022-11-23T15:39:39;172.35;;;104.03;;
49458;SDS011;35354;51.296;16.924;2022-11-23T15:42:05;155.95;;;90.10;;
49458;SDS011;35354;51.296;16.924;2022-11-23T15:44:33;293.42;;;175.48;;
49458;SDS011;35354;51.296;16.924;2022-11-23T15:47:03;231.38;;;140.68;;
49458;SDS011;35354;51.296;16.924;2022-11-23T15:49:30;270.27;;;165.57;;
49458;SDS011;35354;51.296;16.924;2022-11-23T15:52:00;188.55;;;108.78;;
49458;SDS011;35354;51.296;16.924;2022-11-23T15:54:32;153.43;;;92.30;;
49458;SDS011;35354;51.296;16.924;2022-11-23T15:56:59;149.35;;;80.38;;
49458;SDS011;35354;51.296;16.924;2022-11-23T16:01:55;128.68;;;74.13;;
49458;SDS011;35354;51.296;16.924;2022-11-23T16:04:27;163.82;;;93.43;;
49458;SDS011;35354;51.296;16.924;2022-11-23T16:07:13;159.50;;;92.40;;
49458;SDS011;35354;51.296;16.924;2022-11-23T16:09:41;181.93;;;99.82;;
49458;SDS011;35354;51.296;16.924;2022-11-23T16:18:25;198.85;;;121.10;;
49458;SDS011;35354;51.296;16.924;2022-11-23T16:20:58;181.35;;;109.00;;
49458;SDS011;35354;51.296;16.924;2022-11-23T16:23:26;159.82;;;93.47;;